Time;durP1;ratioP1;P1;durP2;ratioP2;P2;SDS_P1;SDS_P2;PMS_P1;PMS_P2;Temp;Humidity;BMP_temperature;BMP_pressure;BME280_temperature;BME280_humidity;BME280_pressure;Samples;Min_cycle;Max_cycle;Signal;HPM_P1;HPM_P2
2023/04/05 00:00:45;;;;;;;;;;;3.00;99.90;;;;;;5077025;28;20265;-56
2023/04/05 00:03:11;;;;;;;;;;;3.10;99.90;;;;;;5076614;28;20268;-55
2023/04/05 00:05:37;;;;;;;;;;;3.10;99.90;;;;;;5076692;28;19912;-55
2023/04/05 00:08:07;;;;;;;;;;;3.10;99.90;;;;;;5076766;28;19919;-55
2023/04/05 00:10:32;;;;;;;;;;;3.10;99.90;;;;;;5076685;28;20328;-55
2023/04/05 00:12:59;;;;;;;;;;;3.20;99.90;;;;;;5076460;28;19918;-56
2023/04/05 00:15:26;;;;;;;;;;;3.30;99.90;;;;;;5076307;28;19912;-55
2023/04/05 00:17:55;;;;;;;;;;;3.30;99.90;;;;;;5076514;28;19913;-55
2023/04/05 00:20:20;;;;;;;;;;;3.20;99.90;;;;;;5076603;28;20263;-55
2023/04/05 00:22:49;;;;;;;;;;;3.20;99.90;;;;;;5076449;28;19913;-56
2023/04/05 00:25:15;;;;;;;;;;;3.20;99.90;;;;;;5076495;28;19938;-55
2023/04/05 00:27:44;;;;;;;;;;;3.20;99.90;;;;;;5076390;28;19999;-55
2023/04/05 00:30:10;;;;;;;;;;;3.10;99.90;;;;;;5058465;28;20431;-56
2023/04/05 00:32:35;;;;;;;;;;;3.10;99.90;;;;;;5076392;28;19919;-55
2023/04/05 00:35:01;;;;;;;;;;;3.10;99.90;;;;;;5058354;28;19971;-55
2023/04/05 00:37:27;;;;;;;;;;;3.20;99.90;;;;;;5076173;28;19912;-55
2023/04/05 00:39:53;;;;;;;;;;;3.20;99.90;;;;;;5076114;28;20315;-58
2023/04/05 00:42:19;;;;;;;;;;;3.10;99.90;;;;;;5076101;28;19963;-58
2023/04/05 00:44:45;;;;;;;;;;;3.10;99.90;;;;;;5076237;28;20370;-58
2023/04/05 00:47:11;;;;;;;;;;;3.10;99.90;;;;;;5075998;28;19912;-58
2023/04/05 00:49:37;;;;;;;;;;;3.00;99.90;;;;;;5058057;28;19919;-58
2023/04/05 00:52:03;;;;;;;;;;;3.00;99.90;;;;;;5076004;28;19904;-58
2023/04/05 00:54:29;;;;;;;;;;;3.10;99.90;;;;;;5075810;28;19926;-58
2023/04/05 00:56:55;;;;;;;;;;;3.10;99.90;;;;;;5057841;28;19963;-58
2023/04/05 00:59:22;;;;;;;;;;;3.20;99.90;;;;;;5057915;28;19916;-58
2023/04/05 01:01:54;;;;;;;;;;;3.10;99.90;;;;;;5075734;28;19912;-58
2023/04/05 01:04:22;;;;;;;;;;;3.10;99.90;;;;;;5075622;28;19954;-58
2023/04/05 01:06:48;;;;;;;;;;;2.90;99.90;;;;;;5057716;28;19913;-58
2023/04/05 01:09:28;;;;;;;;;;;2.90;99.90;;;;;;5075328;28;19996;-58
2023/04/05 01:11:55;;;;;;;;;;;2.90;99.90;;;;;;5075610;28;20271;-58
2023/04/05 01:14:21;;;;;;;;;;;2.80;99.90;;;;;;5075531;28;19912;-58
2023/04/05 01:16:56;;;;;;;;;;;2.90;99.90;;;;;;5075470;28;19908;-58
2023/04/05 01:19:27;;;;;;;;;;;2.90;99.90;;;;;;5075539;28;19927;-58
2023/04/05 01:22:12;;;;;;;;;;;2.90;99.90;;;;;;5075410;28;19937;-58
2023/04/05 01:24:51;;;;;;;;;;;2.80;99.90;;;;;;5057334;28;20019;-58
2023/04/05 01:27:38;;;;;;;;;;;2.90;99.90;;;;;;5056656;28;19935;-58
2023/04/05 01:30:10;;;;;;;;;;;2.90;99.90;;;;;;5060954;28;19913;-58
2023/04/05 01:32:47;;;;;;;;;;;3.00;99.90;;;;;;5075122;28;19912;-58
2023/04/05 01:35:28;;;;;;;;;;;3.00;99.90;;;;;;5075218;28;19999;-58
2023/04/05 01:38:02;;;;;;;;;;;2.90;99.90;;;;;;5074903;28;19916;-58
2023/04/05 01:40:30;;;;;;;;;;;3.00;99.90;;;;;;5057141;28;19912;-58
2023/04/05 01:42:55;;;;;;;;;;;3.00;99.90;;;;;;5075512;28;19912;-58
2023/04/05 01:45:21;;;;;;;;;;;3.10;99.90;;;;;;5056997;28;20282;-58
2023/04/05 01:47:47;;;;;;;;;;;3.10;99.90;;;;;;5075115;28;19908;-58
2023/04/05 01:50:13;;;;;;;;;;;3.00;99.90;;;;;;5074916;28;19944;-58
2023/04/05 01:52:39;;;;;;;;;;;3.00;99.90;;;;;;5074935;28;19986;-58
2023/04/05 01:55:05;;;;;;;;;;;3.10;99.90;;;;;;5074846;28;19920;-58
2023/04/05 01:57:31;;;;;;;;;;;3.10;99.90;;;;;;5075048;28;19913;-58
2023/04/05 01:59:57;;;;;;;;;;;3.00;99.90;;;;;;5056748;28;19916;-58
2023/04/05 02:02:22;;;;;;;;;;;2.90;99.90;;;;;;5074543;28;20278;-58
2023/04/05 02:04:48;;;;;;;;;;;2.90;99.90;;;;;;5074664;28;20019;-58
2023/04/05 02:07:14;;;;;;;;;;;2.90;99.90;;;;;;5056624;28;19912;-58
2023/04/05 02:09:40;;;;;;;;;;;2.90;99.90;;;;;;5075180;28;19978;-58
2023/04/05 02:12:06;;;;;;;;;;;2.80;99.90;;;;;;5075384;28;19921;-58
2023/04/05 02:14:32;;;;;;;;;;;2.90;99.90;;;;;;5075244;28;19912;-58
2023/04/05 02:17:01;;;;;;;;;;;2.90;99.90;;;;;;5075583;28;19919;-58
2023/04/05 02:19:28;;;;;;;;;;;2.80;99.90;;;;;;5075569;28;19923;-58
2023/04/05 02:21:54;;;;;;;;;;;2.90;99.90;;;;;;5040741;28;19912;-58
2023/04/05 02:24:20;;;;;;;;;;;3.00;99.90;;;;;;5075618;28;20013;-55
2023/04/05 02:26:46;;;;;;;;;;;3.00;99.90;;;;;;5075559;28;19943;-55
2023/04/05 02:29:12;;;;;;;;;;;2.90;99.90;;;;;;5075320;28;20301;-55
2023/04/05 02:31:38;;;;;;;;;;;2.80;99.90;;;;;;5075590;28;19909;-55
2023/04/05 02:34:04;;;;;;;;;;;2.80;99.90;;;;;;5075409;28;19912;-55
2023/04/05 02:36:30;;;;;;;;;;;2.80;99.90;;;;;;5057289;28;19923;-55
2023/04/05 02:38:56;;;;;;;;;;;2.70;99.90;;;;;;5060510;28;19916;-55
2023/04/05 02:41:23;;;;;;;;;;;2.80;99.90;;;;;;5079252;28;19981;-55
2023/04/05 02:43:49;;;;;;;;;;;2.90;99.90;;;;;;5060467;28;19920;-55
2023/04/05 02:46:15;;;;;;;;;;;2.90;99.90;;;;;;5078437;28;19958;-55
2023/04/05 02:48:42;;;;;;;;;;;2.80;99.90;;;;;;5060234;28;19940;-55
2023/04/05 02:51:10;;;;;;;;;;;2.90;99.90;;;;;;5060190;28;20336;-55
2023/04/05 02:53:38;;;;;;;;;;;2.90;99.90;;;;;;5060217;28;19927;-55
2023/04/05 02:56:07;;;;;;;;;;;2.80;99.90;;;;;;5059991;28;19912;-55
2023/04/05 02:58:37;;;;;;;;;;;2.80;99.90;;;;;;5060089;28;20333;-55
2023/04/05 03:01:06;;;;;;;;;;;2.80;99.90;;;;;;5078051;28;19962;-56
2023/04/05 03:03:35;;;;;;;;;;;2.80;99.90;;;;;;5059918;28;19919;-56
2023/04/05 03:06:09;;;;;;;;;;;2.80;99.90;;;;;;5059900;28;19912;-56
2023/04/05 03:08:42;;;;;;;;;;;2.80;99.90;;;;;;5059796;28;19912;-55
2023/04/05 03:11:09;;;;;;;;;;;2.80;99.90;;;;;;5059833;28;19920;-55
2023/04/05 03:13:37;;;;;;;;;;;2.80;99.90;;;;;;5059902;28;19912;-55
2023/04/05 03:16:07;;;;;;;;;;;2.80;99.90;;;;;;5059973;28;19971;-56
2023/04/05 03:18:34;;;;;;;;;;;2.80;99.90;;;;;;5059642;28;19917;-56
2023/04/05 03:21:10;;;;;;;;;;;2.90;99.90;;;;;;5059689;28;20003;-56
2023/04/05 03:23:41;;;;;;;;;;;2.90;99.90;;;;;;5059683;28;19912;-56
2023/04/05 03:26:09;;;;;;;;;;;3.00;99.90;;;;;;5059545;28;20388;-55
2023/04/05 03:28:43;;;;;;;;;;;2.90;99.90;;;;;;5059692;28;20305;-55
2023/04/05 03:31:10;;;;;;;;;;;2.90;99.90;;;;;;5059594;28;19916;-55
2023/04/05 03:33:37;;;;;;;;;;;2.80;99.90;;;;;;5059439;28;19913;-55
2023/04/05 03:36:04;;;;;;;;;;;2.80;99.90;;;;;;5059674;28;20289;-55
2023/04/05 03:38:33;;;;;;;;;;;2.80;99.90;;;;;;5059398;28;19920;-55
2023/04/05 03:41:13;;;;;;;;;;;2.80;99.90;;;;;;5059350;28;19912;-55
2023/04/05 03:43:40;;;;;;;;;;;2.80;99.90;;;;;;5059365;28;19962;-56
2023/04/05 03:46:06;;;;;;;;;;;2.90;99.90;;;;;;5059183;28;19912;-56
2023/04/05 03:48:31;;;;;;;;;;;3.00;99.90;;;;;;5077202;28;19912;-55
2023/04/05 03:50:57;;;;;;;;;;;3.00;99.90;;;;;;5076643;28;20038;-55
2023/04/05 03:53:23;;;;;;;;;;;3.00;99.90;;;;;;5076832;28;20281;-56
2023/04/05 03:55:54;;;;;;;;;;;2.90;99.90;;;;;;5059093;28;19913;-56
2023/04/05 03:58:32;;;;;;;;;;;2.60;99.90;;;;;;5059086;28;19917;-55
2023/04/05 04:00:58;;;;;;;;;;;2.60;99.90;;;;;;5059067;28;19963;-55
2023/04/05 04:03:24;;;;;;;;;;;2.40;99.90;;;;;;5059129;28;19908;-55
2023/04/05 04:05:51;;;;;;;;;;;2.40;99.90;;;;;;5058611;28;19913;-56
2023/04/05 04:08:18;;;;;;;;;;;2.50;99.90;;;;;;5058720;28;19923;-55
2023/04/05 04:10:44;;;;;;;;;;;2.40;99.90;;;;;;5058873;28;20362;-55
2023/04/05 04:13:18;;;;;;;;;;;2.60;99.90;;;;;;5058807;28;19961;-56
2023/04/05 04:15:47;;;;;;;;;;;2.60;99.90;;;;;;5058807;28;19916;-56
2023/04/05 04:18:31;;;;;;;;;;;2.60;99.90;;;;;;5058589;28;20348;-56
2023/04/05 04:21:23;;;;;;;;;;;2.60;99.90;;;;;;5066148;28;19913;-56
2023/04/05 04:24:01;;;;;;;;;;;2.60;99.90;;;;;;5076755;28;19920;-55
2023/04/05 04:27:00;;;;;;;;;;;2.70;99.90;;;;;;5031725;28;19916;-56
2023/04/05 04:29:46;;;;;;;;;;;2.80;99.90;;;;;;5054594;28;19913;-55
2023/04/05 04:32:25;;;;;;;;;;;2.70;99.90;;;;;;5076472;28;20401;-55
2023/04/05 04:35:17;;;;;;;;;;;2.70;99.90;;;;;;5047287;28;20320;-55
2023/04/05 04:38:03;;;;;;;;;;;2.80;99.90;;;;;;5076538;28;19958;-55
2023/04/05 04:40:52;;;;;;;;;;;2.90;99.90;;;;;;5058184;28;19912;-55
2023/04/05 04:43:47;;;;;;;;;;;2.90;99.90;;;;;;5062422;28;19913;-55
2023/04/05 04:46:42;;;;;;;;;;;2.80;99.90;;;;;;5047037;28;19912;-56
2023/04/05 04:49:34;;;;;;;;;;;2.70;99.90;;;;;;5057624;28;20006;-56
2023/04/05 04:52:00;;;;;;;;;;;2.80;99.90;;;;;;5076068;28;19921;-56
2023/04/05 04:54:27;;;;;;;;;;;2.90;99.90;;;;;;5075790;28;19925;-56
2023/04/05 04:56:53;;;;;;;;;;;2.90;99.90;;;;;;5075694;28;19912;-55
2023/04/05 04:59:19;;;;;;;;;;;3.00;99.90;;;;;;5075788;28;19931;-56
2023/04/05 05:01:44;;;;;;;;;;;3.00;99.90;;;;;;5074750;28;19916;-55
2023/04/05 05:04:10;;;;;;;;;;;3.00;99.90;;;;;;5075525;28;19921;-55
2023/04/05 05:06:38;;;;;;;;;;;3.00;99.90;;;;;;5057595;28;20464;-56
2023/04/05 05:09:04;;;;;;;;;;;3.10;99.90;;;;;;5075538;28;19917;-56
2023/04/05 05:11:34;;;;;;;;;;;3.10;99.90;;;;;;5075859;28;19913;-55
2023/04/05 05:14:01;;;;;;;;;;;3.10;99.90;;;;;;5057387;28;19916;-55
2023/04/05 05:16:27;;;;;;;;;;;3.10;99.90;;;;;;5057253;28;19916;-56
2023/04/05 05:18:53;;;;;;;;;;;3.20;99.90;;;;;;5075522;28;19927;-55
2023/04/05 05:21:21;;;;;;;;;;;3.20;99.90;;;;;;5054694;28;19962;-55
2023/04/05 05:23:54;;;;;;;;;;;3.10;99.90;;;;;;5057124;28;19923;-56
2023/04/05 05:26:20;;;;;;;;;;;3.20;99.90;;;;;;5074930;28;19912;-56
2023/04/05 05:28:47;;;;;;;;;;;3.20;99.90;;;;;;5075071;28;19912;-56
2023/04/05 05:31:13;;;;;;;;;;;3.30;99.90;;;;;;5074966;28;19916;-56
2023/04/05 05:33:39;;;;;;;;;;;3.40;99.90;;;;;;5075047;28;19912;-55
2023/04/05 05:36:05;;;;;;;;;;;3.40;99.90;;;;;;5074960;28;19912;-55
2023/04/05 05:38:31;;;;;;;;;;;3.50;99.90;;;;;;5074695;28;19943;-56
2023/04/05 05:40:57;;;;;;;;;;;3.50;99.90;;;;;;5073268;28;19913;-56
2023/04/05 05:43:24;;;;;;;;;;;3.40;99.90;;;;;;5073745;28;19917;-56
2023/04/05 05:45:52;;;;;;;;;;;3.50;99.90;;;;;;5074832;28;19912;-56
2023/04/05 05:48:18;;;;;;;;;;;3.60;99.90;;;;;;5074834;28;19938;-56
2023/04/05 05:50:47;;;;;;;;;;;3.70;99.90;;;;;;5074630;28;19917;-56
2023/04/05 05:53:13;;;;;;;;;;;3.90;99.90;;;;;;5074283;28;19921;-56
2023/04/05 05:55:40;;;;;;;;;;;3.80;99.90;;;;;;5074527;28;19981;-56
2023/04/05 05:58:06;;;;;;;;;;;3.90;99.90;;;;;;5074609;28;20283;-56
2023/04/05 06:00:32;;;;;;;;;;;4.00;99.90;;;;;;5074756;28;19943;-56
2023/04/05 06:02:58;;;;;;;;;;;4.00;99.90;;;;;;5074624;28;19973;-56
2023/04/05 06:05:24;;;;;;;;;;;3.90;99.90;;;;;;5074507;28;19916;-55
2023/04/05 06:07:50;;;;;;;;;;;3.90;99.90;;;;;;5074495;28;19931;-56
2023/04/05 06:10:15;;;;;;;;;;;3.90;99.90;;;;;;5074450;28;19916;-56
2023/04/05 06:12:41;;;;;;;;;;;4.00;99.90;;;;;;5074237;28;19928;-55
2023/04/05 06:15:07;;;;;;;;;;;3.90;99.90;;;;;;5074389;28;20011;-56
2023/04/05 06:17:38;;;;;;;;;;;4.00;99.90;;;;;;5074418;28;19912;-56
2023/04/05 06:20:04;;;;;;;;;;;4.00;99.90;;;;;;5074376;28;19917;-56
2023/04/05 06:22:32;;;;;;;;;;;4.00;99.90;;;;;;5074217;28;20378;-56
2023/04/05 06:24:58;;;;;;;;;;;4.00;99.90;;;;;;5074216;28;19912;-56
2023/04/05 06:27:23;;;;;;;;;;;4.00;99.90;;;;;;5074400;28;20377;-56
2023/04/05 06:29:49;;;;;;;;;;;4.00;99.90;;;;;;5074261;28;20366;-56
2023/04/05 06:32:15;;;;;;;;;;;4.10;99.90;;;;;;5074125;28;19916;-55
2023/04/05 06:34:41;;;;;;;;;;;4.30;99.90;;;;;;5074309;28;19920;-56
2023/04/05 06:37:06;;;;;;;;;;;4.30;99.90;;;;;;5074126;28;20373;-56
2023/04/05 06:39:32;;;;;;;;;;;4.40;99.90;;;;;;5074265;28;20362;-55
2023/04/05 06:41:58;;;;;;;;;;;4.50;99.90;;;;;;5074460;28;20011;-55
2023/04/05 06:44:28;;;;;;;;;;;4.40;99.90;;;;;;5056095;28;19919;-56
2023/04/05 06:46:54;;;;;;;;;;;4.50;99.90;;;;;;5074304;28;19917;-56
2023/04/05 06:49:20;;;;;;;;;;;4.50;99.90;;;;;;5074642;28;20381;-55
2023/04/05 06:51:45;;;;;;;;;;;4.60;99.90;;;;;;5073864;28;19912;-55
2023/04/05 06:54:11;;;;;;;;;;;4.70;99.90;;;;;;5074147;28;19925;-56
2023/04/05 06:56:37;;;;;;;;;;;4.80;99.90;;;;;;5074174;28;19912;-56
2023/04/05 06:59:03;;;;;;;;;;;4.90;99.90;;;;;;5073223;28;19916;-56
2023/04/05 07:01:29;;;;;;;;;;;4.90;99.90;;;;;;5073996;28;20003;-57
2023/04/05 07:03:55;;;;;;;;;;;4.80;99.90;;;;;;5074203;28;20455;-56
2023/04/05 07:06:22;;;;;;;;;;;4.80;99.90;;;;;;5074066;28;19916;-57
2023/04/05 07:08:48;;;;;;;;;;;4.60;99.90;;;;;;5074692;28;20329;-57
2023/04/05 07:11:14;;;;;;;;;;;4.70;99.90;;;;;;5074684;28;19966;-56
2023/04/05 07:13:40;;;;;;;;;;;4.70;99.90;;;;;;5074620;28;19956;-57
2023/04/05 07:16:06;;;;;;;;;;;4.60;99.90;;;;;;5072630;28;19912;-57
2023/04/05 07:18:32;;;;;;;;;;;4.70;99.90;;;;;;5074635;28;19916;-57
2023/04/05 07:21:02;;;;;;;;;;;4.80;99.90;;;;;;5074121;28;19920;-57
2023/04/05 07:23:29;;;;;;;;;;;4.80;99.90;;;;;;5070926;28;19958;-56
2023/04/05 07:26:04;;;;;;;;;;;5.00;99.90;;;;;;5074665;28;19944;-57
2023/04/05 07:28:30;;;;;;;;;;;5.20;99.90;;;;;;5077720;28;19958;-57
2023/04/05 07:30:56;;;;;;;;;;;5.40;99.90;;;;;;5077879;28;19927;-57
2023/04/05 07:33:22;;;;;;;;;;;5.70;99.90;;;;;;5077761;28;19913;-57
2023/04/05 07:35:55;;;;;;;;;;;5.90;99.90;;;;;;5078064;28;19965;-57
2023/04/05 07:38:21;;;;;;;;;;;5.80;99.90;;;;;;5074519;28;19948;-57
2023/04/05 07:40:50;;;;;;;;;;;6.00;99.90;;;;;;5076625;28;19913;-57
2023/04/05 07:43:17;;;;;;;;;;;6.50;99.90;;;;;;5077519;28;19920;-57
2023/04/05 07:45:43;;;;;;;;;;;6.80;99.90;;;;;;5077349;28;20322;-56
2023/04/05 07:48:08;;;;;;;;;;;7.00;99.90;;;;;;5077017;28;19987;-57
2023/04/05 07:50:35;;;;;;;;;;;6.80;99.90;;;;;;5077913;28;19913;-57
2023/04/05 07:53:01;;;;;;;;;;;6.90;99.90;;;;;;5077383;28;19970;-57
2023/04/05 07:55:27;;;;;;;;;;;6.90;99.90;;;;;;5076497;28;20788;-57
2023/04/05 07:57:52;;;;;;;;;;;6.80;99.90;;;;;;5076141;28;20346;-57
2023/04/05 08:00:19;;;;;;;;;;;6.70;99.90;;;;;;5076073;28;20396;-57
2023/04/05 08:02:44;;;;;;;;;;;6.40;99.90;;;;;;5076069;28;19908;-57
2023/04/05 08:05:10;;;;;;;;;;;6.20;99.90;;;;;;5076182;28;19934;-57
2023/04/05 08:07:36;;;;;;;;;;;6.00;99.90;;;;;;5076007;28;19947;-57
2023/04/05 08:10:03;;;;;;;;;;;5.70;99.90;;;;;;5076114;28;19918;-57
2023/04/05 08:12:30;;;;;;;;;;;5.80;99.90;;;;;;5076398;28;20703;-57
2023/04/05 08:14:55;;;;;;;;;;;5.70;99.90;;;;;;5070576;28;20385;-57
2023/04/05 08:17:22;;;;;;;;;;;6.20;99.90;;;;;;5075454;28;20019;-57
2023/04/05 08:19:48;;;;;;;;;;;6.50;99.90;;;;;;5076785;28;20378;-57
2023/04/05 08:22:16;;;;;;;;;;;6.60;99.90;;;;;;5077144;28;19916;-57
2023/04/05 08:24:42;;;;;;;;;;;6.60;99.90;;;;;;5076982;28;20382;-57
2023/04/05 08:27:08;;;;;;;;;;;6.90;99.90;;;;;;5076828;28;19908;-57
2023/04/05 08:29:35;;;;;;;;;;;7.20;99.90;;;;;;5076920;28;19916;-57
2023/04/05 08:32:00;;;;;;;;;;;7.10;99.90;;;;;;5076964;28;19917;-57
2023/04/05 08:34:26;;;;;;;;;;;7.40;99.90;;;;;;5076989;28;19966;-57
2023/04/05 08:36:52;;;;;;;;;;;7.80;99.90;;;;;;5076400;28;20341;-57
2023/04/05 08:39:17;;;;;;;;;;;7.50;99.90;;;;;;5076691;28;19923;-57
2023/04/05 08:41:56;;;;;;;;;;;7.80;99.90;;;;;;5076863;28;19965;-57
2023/04/05 08:44:24;;;;;;;;;;;7.70;99.90;;;;;;5076480;28;20443;-57
2023/04/05 08:46:50;;;;;;;;;;;7.50;99.90;;;;;;5076741;28;19955;-57
2023/04/05 08:49:16;;;;;;;;;;;6.70;99.90;;;;;;5076782;28;20278;-56
2023/04/05 08:51:42;;;;;;;;;;;6.80;99.90;;;;;;5076205;28;19912;-57
2023/04/05 08:54:08;;;;;;;;;;;6.90;99.90;;;;;;5075896;28;19982;-57
2023/04/05 08:56:35;;;;;;;;;;;6.70;99.90;;;;;;5074691;28;19967;-57
2023/04/05 08:59:02;;;;;;;;;;;6.80;99.90;;;;;;5072605;28;19991;-57
2023/04/05 09:01:29;;;;;;;;;;;6.70;99.90;;;;;;5073472;28;20365;-57
2023/04/05 09:03:56;;;;;;;;;;;6.80;99.90;;;;;;5074021;28;20384;-57
2023/04/05 09:06:22;;;;;;;;;;;6.80;99.90;;;;;;5073372;28;19920;-57
2023/04/05 09:08:48;;;;;;;;;;;7.00;99.90;;;;;;5073906;28;19919;-57
2023/04/05 09:11:14;;;;;;;;;;;6.90;99.90;;;;;;5073597;28;19916;-57
2023/04/05 09:13:40;;;;;;;;;;;6.90;99.90;;;;;;5074838;28;19917;-57
2023/04/05 09:16:06;;;;;;;;;;;6.80;99.90;;;;;;5075492;28;19966;-57
2023/04/05 09:18:32;;;;;;;;;;;6.30;99.80;;;;;;5075875;28;19923;-57
2023/04/05 09:21:02;;;;;;;;;;;6.40;99.90;;;;;;5075484;28;19966;-57
2023/04/05 09:23:28;;;;;;;;;;;6.20;99.90;;;;;;5075960;28;19936;-57
2023/04/05 09:25:54;;;;;;;;;;;6.40;99.50;;;;;;5074131;28;19923;-57
2023/04/05 09:28:20;;;;;;;;;;;6.30;99.90;;;;;;5075645;28;19912;-56
2023/04/05 09:30:46;;;;;;;;;;;6.40;99.90;;;;;;5075919;28;19959;-57
2023/04/05 09:33:14;;;;;;;;;;;6.60;99.90;;;;;;5075983;28;20011;-57
2023/04/05 09:35:41;;;;;;;;;;;6.50;99.90;;;;;;5075515;28;19916;-56
2023/04/05 09:38:06;;;;;;;;;;;6.60;99.90;;;;;;5075538;28;20426;-57
2023/04/05 09:40:48;;;;;;;;;;;6.50;99.90;;;;;;5057710;28;20346;-57
2023/04/05 09:43:39;;;;;;;;;;;6.70;99.90;;;;;;5057170;28;19955;-57
2023/04/05 09:46:06;;;;;;;;;;;6.80;99.90;;;;;;5075690;28;19959;-57
2023/04/05 09:48:53;;;;;;;;;;;7.00;99.90;;;;;;5074746;28;20381;-57
2023/04/05 09:51:18;;;;;;;;;;;7.60;99.90;;;;;;5075406;28;20419;-57
2023/04/05 09:54:00;;;;;;;;;;;7.80;99.90;;;;;;5075527;28;20011;-57
2023/04/05 09:56:27;;;;;;;;;;;8.20;99.90;;;;;;5075320;28;19913;-57
2023/04/05 09:58:57;;;;;;;;;;;7.40;99.90;;;;;;5075222;28;20011;-57
2023/04/05 10:01:26;;;;;;;;;;;7.60;99.90;;;;;;5075516;28;19997;-57
2023/04/05 10:03:51;;;;;;;;;;;7.30;99.90;;;;;;5075304;28;20362;-57
2023/04/05 10:06:17;;;;;;;;;;;7.40;99.90;;;;;;5075319;28;19912;-57
2023/04/05 10:08:45;;;;;;;;;;;7.20;99.90;;;;;;5075338;28;19916;-57
2023/04/05 10:11:12;;;;;;;;;;;6.70;99.90;;;;;;5075333;28;20569;-57
2023/04/05 10:13:39;;;;;;;;;;;6.40;99.90;;;;;;5075369;28;19912;-57
2023/04/05 10:16:08;;;;;;;;;;;6.40;99.90;;;;;;5075189;28;19951;-57
2023/04/05 10:18:40;;;;;;;;;;;6.90;99.90;;;;;;5074937;28;19916;-57
2023/04/05 10:21:10;;;;;;;;;;;7.00;99.90;;;;;;5075246;28;20321;-57
2023/04/05 10:23:36;;;;;;;;;;;6.60;99.90;;;;;;5075132;28;20366;-57
2023/04/05 10:26:08;;;;;;;;;;;6.30;99.90;;;;;;5075254;28;19919;-57
2023/04/05 10:28:36;;;;;;;;;;;6.10;99.90;;;;;;5075368;28;19912;-57
2023/04/05 10:31:11;;;;;;;;;;;6.00;99.90;;;;;;5063861;28;20468;-56
2023/04/05 10:33:42;;;;;;;;;;;6.10;99.90;;;;;;5062565;28;20004;-57
2023/04/05 10:36:38;;;;;;;;;;;6.10;99.50;;;;;;5068104;28;19912;-57
2023/04/05 10:39:04;;;;;;;;;;;6.50;99.90;;;;;;5034177;28;19956;-57
2023/04/05 10:41:35;;;;;;;;;;;7.10;98.30;;;;;;5055077;28;19924;-57
2023/04/05 10:44:02;;;;;;;;;;;7.30;99.60;;;;;;5055054;28;20000;-57
2023/04/05 10:46:32;;;;;;;;;;;7.30;98.40;;;;;;5054072;28;20382;-57
2023/04/05 10:49:02;;;;;;;;;;;7.40;99.90;;;;;;5054434;28;19916;-57
2023/04/05 10:51:28;;;;;;;;;;;7.00;98.80;;;;;;5068149;28;19936;-57
2023/04/05 10:53:57;;;;;;;;;;;7.00;97.40;;;;;;5073653;28;20289;-57
2023/04/05 10:56:24;;;;;;;;;;;7.10;97.90;;;;;;5074302;28;19912;-57
2023/04/05 10:58:51;;;;;;;;;;;7.10;98.50;;;;;;5072307;28;20370;-57
2023/04/05 11:01:18;;;;;;;;;;;7.10;98.00;;;;;;5077536;28;20320;-57
2023/04/05 11:03:47;;;;;;;;;;;7.10;95.80;;;;;;5078004;28;19913;-57
2023/04/05 11:06:28;;;;;;;;;;;7.30;98.40;;;;;;5077415;28;20455;-57
2023/04/05 11:08:55;;;;;;;;;;;7.40;97.10;;;;;;5077512;28;19918;-57
2023/04/05 11:11:22;;;;;;;;;;;6.70;94.80;;;;;;5076766;28;19916;-57
2023/04/05 11:13:51;;;;;;;;;;;6.40;98.30;;;;;;5077184;28;19913;-57
2023/04/05 11:16:18;;;;;;;;;;;6.30;98.00;;;;;;5076876;28;20304;-57
2023/04/05 11:18:46;;;;;;;;;;;6.60;98.20;;;;;;5077217;28;19923;-57
2023/04/05 11:21:18;;;;;;;;;;;6.20;94.50;;;;;;5077120;28;19942;-57
2023/04/05 11:24:05;;;;;;;;;;;6.40;95.80;;;;;;5077106;28;19919;-57
2023/04/05 11:26:32;;;;;;;;;;;6.50;97.60;;;;;;5077589;28;20016;-57
2023/04/05 11:28:58;;;;;;;;;;;6.80;97.60;;;;;;5077113;28;19909;-57
2023/04/05 11:31:25;;;;;;;;;;;6.80;94.10;;;;;;5077908;28;19923;-57
2023/04/05 11:34:08;;;;;;;;;;;6.70;95.20;;;;;;5077316;28;19923;-57
2023/04/05 11:36:35;;;;;;;;;;;6.50;94.70;;;;;;5076646;28;20390;-57
2023/04/05 11:39:22;;;;;;;;;;;6.40;94.70;;;;;;5076323;28;19922;-57
2023/04/05 11:41:59;;;;;;;;;;;6.40;93.80;;;;;;5077068;28;19912;-57
2023/04/05 11:44:25;;;;;;;;;;;6.40;94.60;;;;;;5076913;28;19923;-57
2023/04/05 11:46:52;;;;;;;;;;;6.30;93.20;;;;;;5076836;28;20409;-57
2023/04/05 11:49:20;;;;;;;;;;;6.20;94.00;;;;;;5076070;28;20007;-57
2023/04/05 11:51:47;;;;;;;;;;;6.40;93.20;;;;;;5076774;28;19925;-57
2023/04/05 11:54:14;;;;;;;;;;;6.20;97.10;;;;;;5076881;28;20358;-57
2023/04/05 11:56:41;;;;;;;;;;;6.20;93.60;;;;;;5076461;28;19951;-59
2023/04/05 11:59:12;;;;;;;;;;;6.30;93.60;;;;;;5074908;28;19920;-57
2023/04/05 12:01:38;;;;;;;;;;;6.60;94.00;;;;;;5076659;28;19912;-57
2023/04/05 12:04:06;;;;;;;;;;;6.70;93.30;;;;;;5076533;28;19935;-57
2023/04/05 12:06:32;;;;;;;;;;;6.80;91.80;;;;;;5076783;28;19917;-57
2023/04/05 12:08:57;;;;;;;;;;;6.90;93.70;;;;;;5076679;28;20364;-57
2023/04/05 12:11:27;;;;;;;;;;;6.70;92.50;;;;;;5075599;28;19962;-57
2023/04/05 12:13:53;;;;;;;;;;;6.50;93.50;;;;;;5076578;28;20039;-57
2023/04/05 12:16:19;;;;;;;;;;;6.70;92.90;;;;;;5076670;28;19917;-57
2023/04/05 12:18:51;;;;;;;;;;;6.70;94.20;;;;;;5076136;28;19928;-57
2023/04/05 12:21:17;;;;;;;;;;;6.70;92.40;;;;;;5076754;28;19912;-57
2023/04/05 12:23:43;;;;;;;;;;;6.70;91.60;;;;;;5076202;28;19964;-57
2023/04/05 12:26:09;;;;;;;;;;;6.70;92.10;;;;;;5076134;28;19913;-57
2023/04/05 12:28:57;;;;;;;;;;;6.70;92.60;;;;;;5075822;28;19919;-57
2023/04/05 12:31:39;;;;;;;;;;;6.80;94.90;;;;;;5075853;28;19963;-57
2023/04/05 12:34:04;;;;;;;;;;;6.40;93.60;;;;;;5074951;28;20274;-57
2023/04/05 12:36:33;;;;;;;;;;;6.40;91.30;;;;;;5075907;28;20003;-57
2023/04/05 12:38:59;;;;;;;;;;;6.50;93.10;;;;;;5074963;28;19959;-57
2023/04/05 12:41:26;;;;;;;;;;;6.50;93.20;;;;;;5075295;28;19970;-57
2023/04/05 12:43:57;;;;;;;;;;;6.70;92.20;;;;;;5075332;28;19917;-57
2023/04/05 12:46:37;;;;;;;;;;;6.80;93.80;;;;;;5069515;28;19912;-57
2023/04/05 12:49:03;;;;;;;;;;;6.50;93.40;;;;;;5072882;28;20330;-57
2023/04/05 12:51:31;;;;;;;;;;;6.60;94.10;;;;;;5075198;28;19935;-57
2023/04/05 12:53:56;;;;;;;;;;;6.70;93.60;;;;;;5074552;28;19924;-57
2023/04/05 12:56:22;;;;;;;;;;;6.70;95.30;;;;;;5075618;28;19913;-57
2023/04/05 12:58:52;;;;;;;;;;;6.60;94.50;;;;;;5075534;28;19920;-57
2023/04/05 13:01:18;;;;;;;;;;;6.70;96.10;;;;;;5090992;28;19917;-57
2023/04/05 13:03:50;;;;;;;;;;;6.60;93.80;;;;;;5058203;28;19924;-57
2023/04/05 13:06:17;;;;;;;;;;;6.50;94.10;;;;;;5057648;28;20390;-57
2023/04/05 13:08:43;;;;;;;;;;;6.60;93.70;;;;;;5072909;28;20005;-57
2023/04/05 13:11:09;;;;;;;;;;;6.70;93.50;;;;;;5074005;28;19913;-57
2023/04/05 13:13:35;;;;;;;;;;;6.70;93.60;;;;;;5074977;28;19918;-57
2023/04/05 13:16:01;;;;;;;;;;;6.60;96.00;;;;;;5074805;28;20010;-57
2023/04/05 13:18:29;;;;;;;;;;;6.40;96.50;;;;;;5056941;28;19999;-57
2023/04/05 13:20:55;;;;;;;;;;;6.60;96.60;;;;;;5040661;28;19962;-57
2023/04/05 13:23:22;;;;;;;;;;;6.50;94.00;;;;;;5074136;28;19912;-57
2023/04/05 13:25:50;;;;;;;;;;;6.50;96.30;;;;;;5072250;28;20019;-57
2023/04/05 13:28:16;;;;;;;;;;;6.40;97.00;;;;;;5072144;28;19962;-57
2023/04/05 13:30:42;;;;;;;;;;;6.30;95.40;;;;;;5051440;28;20382;-57
2023/04/05 13:33:09;;;;;;;;;;;6.30;99.90;;;;;;5063659;28;20283;-57
2023/04/05 13:35:35;;;;;;;;;;;6.30;99.50;;;;;;5054849;28;19913;-57
2023/04/05 13:38:02;;;;;;;;;;;6.40;99.60;;;;;;5054823;28;19916;-57
2023/04/05 13:40:30;;;;;;;;;;;6.40;95.10;;;;;;5054936;28;19916;-57
2023/04/05 13:42:56;;;;;;;;;;;6.50;97.00;;;;;;5054910;28;19923;-57
2023/04/05 13:45:22;;;;;;;;;;;6.50;95.50;;;;;;5054850;28;19909;-57
2023/04/05 13:47:48;;;;;;;;;;;6.60;99.90;;;;;;5055067;28;19912;-57
2023/04/05 13:50:13;;;;;;;;;;;6.50;99.90;;;;;;5054831;28;19913;-57
2023/04/05 13:52:39;;;;;;;;;;;6.40;99.90;;;;;;5054765;28;19963;-57
2023/04/05 13:55:05;;;;;;;;;;;6.40;99.50;;;;;;5054826;28;20281;-57
2023/04/05 13:57:31;;;;;;;;;;;6.50;99.90;;;;;;5054589;28;19942;-57
2023/04/05 13:59:57;;;;;;;;;;;6.60;99.90;;;;;;5054877;28;19920;-57
2023/04/05 14:02:24;;;;;;;;;;;6.60;99.90;;;;;;5054841;28;19909;-57
2023/04/05 14:04:51;;;;;;;;;;;6.70;99.90;;;;;;5059264;28;19913;-57
2023/04/05 14:07:16;;;;;;;;;;;6.80;99.90;;;;;;5074595;28;19912;-57
2023/04/05 14:09:43;;;;;;;;;;;6.70;96.90;;;;;;5074881;28;20003;-57
2023/04/05 14:12:09;;;;;;;;;;;6.50;93.60;;;;;;5074643;28;19912;-57
2023/04/05 14:14:35;;;;;;;;;;;6.70;95.60;;;;;;5074817;28;20231;-57
2023/04/05 14:17:01;;;;;;;;;;;6.60;98.70;;;;;;5074625;28;19923;-57
2023/04/05 14:19:27;;;;;;;;;;;6.70;95.10;;;;;;5074450;28;20045;-57
2023/04/05 14:21:52;;;;;;;;;;;6.80;99.00;;;;;;5074805;28;19909;-57
2023/04/05 14:24:18;;;;;;;;;;;6.80;96.50;;;;;;5074826;28;20281;-57
2023/04/05 14:26:48;;;;;;;;;;;6.90;96.40;;;;;;5074359;28;19916;-57
2023/04/05 14:29:16;;;;;;;;;;;7.00;96.00;;;;;;5074546;28;19942;-57
2023/04/05 14:31:43;;;;;;;;;;;6.80;93.00;;;;;;5074570;28;20393;-57
2023/04/05 14:34:09;;;;;;;;;;;6.80;93.50;;;;;;5076411;28;20419;-57
2023/04/05 14:36:35;;;;;;;;;;;6.80;94.10;;;;;;5079123;28;20324;-57
2023/04/05 14:39:01;;;;;;;;;;;6.80;93.50;;;;;;5078689;28;19920;-57